Time;durP1;ratioP1;P1;durP2;ratioP2;P2;SDS_P1;SDS_P2;PMS_P1;PMS_P2;Temp;Humidity;BMP_temperature;BMP_pressure;BME280_temperature;BME280_humidity;BME280_pressure;Samples;Min_cycle;Max_cycle;Signal;HPM_P1;HPM_P2
2022/09/26 00:02:00;;;;;;;5.20;4.80;;;16.30;45.50;;;;;;10505372;28;20276;-68
2022/09/26 00:07:05;;;;;;;5.10;4.67;;;16.30;45.50;;;;;;10507762;28;20286;-68
2022/09/26 00:12:08;;;;;;;5.20;4.70;;;16.30;45.50;;;;;;10505924;28;20228;-69
2022/09/26 00:17:11;;;;;;;5.30;4.80;;;16.20;45.40;;;;;;10507809;28;20227;-69
2022/09/26 00:22:16;;;;;;;5.70;5.30;;;16.20;45.40;;;;;;10505391;28;20228;-68
2022/09/26 00:27:20;;;;;;;5.50;5.10;;;16.20;45.90;;;;;;10504918;28;20249;-68
2022/09/26 00:32:24;;;;;;;6.07;5.33;;;16.20;45.40;;;;;;10504381;28;20235;-68
2022/09/26 00:37:28;;;;;;;5.40;4.90;;;16.20;45.40;;;;;;10503273;28;20228;-68
2022/09/26 00:42:32;;;;;;;5.53;5.13;;;16.20;45.80;;;;;;10503691;28;21031;-69
2022/09/26 00:47:42;;;;;;;6.07;5.57;;;16.20;45.50;;;;;;10502735;28;20222;-69
2022/09/26 00:52:52;;;;;;;5.73;5.23;;;16.20;46.10;;;;;;10502841;28;20707;-69
2022/09/26 00:58:03;;;;;;;5.30;4.90;;;16.20;45.90;;;;;;10501020;28;20224;-69
2022/09/26 01:03:06;;;;;;;5.47;4.97;;;16.20;45.80;;;;;;10502045;28;20251;-69
2022/09/26 01:08:13;;;;;;;5.63;5.13;;;16.20;45.40;;;;;;10501446;28;20220;-69
2022/09/26 01:13:17;;;;;;;5.50;5.10;;;16.20;45.90;;;;;;10500041;28;20234;-68
2022/09/26 01:18:20;;;;;;;6.37;5.80;;;16.10;45.70;;;;;;10500450;28;20227;-69
2022/09/26 01:23:55;;;;;;;5.90;5.40;;;16.10;45.80;;;;;;10503192;28;20231;-69
2022/09/26 01:29:28;;;;;;;6.33;5.50;;;16.10;46.30;;;;;;10502645;28;20234;-69
2022/09/26 01:34:43;;;;;;;5.83;5.40;;;16.10;46.40;;;;;;10506120;28;20219;-69
2022/09/26 01:39:56;;;;;;;6.50;6.00;;;16.00;46.40;;;;;;10502169;28;20235;-68
2022/09/26 01:45:07;;;;;;;6.63;6.03;;;16.00;46.60;;;;;;10503903;28;20278;-68
2022/09/26 01:50:20;;;;;;;6.60;6.10;;;16.00;46.60;;;;;;10498593;28;20569;-69
2022/09/26 01:55:28;;;;;;;6.93;6.33;;;15.90;46.70;;;;;;10506216;28;20215;-69
2022/09/26 02:00:32;;;;;;;7.43;6.73;;;15.90;46.70;;;;;;10512225;28;20857;-69
2022/09/26 02:05:43;;;;;;;6.77;6.20;;;15.90;46.40;;;;;;10510590;28;20224;-68
2022/09/26 02:10:49;;;;;;;8.30;7.60;;;15.90;46.90;;;;;;10511826;28;20228;-68
2022/09/26 02:15:57;;;;;;;7.63;6.93;;;15.90;46.70;;;;;;10504282;28;20216;-69
2022/09/26 02:21:11;;;;;;;8.57;7.77;;;15.90;46.80;;;;;;10512441;28;20223;-69
2022/09/26 02:26:14;;;;;;;8.10;7.50;;;15.90;47.00;;;;;;10506773;28;20228;-68
2022/09/26 02:31:22;;;;;;;8.93;8.23;;;15.90;46.60;;;;;;10511471;28;20231;-68
2022/09/26 02:36:33;;;;;;;9.60;8.60;;;15.90;46.90;;;;;;10505136;28;20338;-68
2022/09/26 02:41:48;;;;;;;8.40;7.70;;;15.90;46.90;;;;;;10507552;28;20235;-68
2022/09/26 02:47:36;;;;;;;8.30;7.60;;;15.80;47.20;;;;;;10505398;28;20288;-68
2022/09/26 02:52:52;;;;;;;8.23;7.40;;;15.90;47.20;;;;;;10471617;28;20679;-68
2022/09/26 02:58:06;;;;;;;8.20;7.50;;;15.90;47.10;;;;;;10506720;28;20223;-69
2022/09/26 03:03:18;;;;;;;7.97;7.37;;;15.90;46.80;;;;;;10511312;28;20219;-69
2022/09/26 03:08:26;;;;;;;7.67;6.97;;;16.00;47.60;;;;;;10501533;28;20233;-69
2022/09/26 03:13:33;;;;;;;7.33;6.73;;;16.00;46.70;;;;;;10505651;28;20232;-68
2022/09/26 03:18:40;;;;;;;8.03;7.37;;;16.00;46.50;;;;;;10506202;28;20224;-69
2022/09/26 03:23:45;;;;;;;7.60;7.00;;;16.00;46.80;;;;;;10508753;28;20274;-68
2022/09/26 03:28:49;;;;;;;7.20;6.60;;;16.00;46.80;;;;;;10504428;28;20231;-68
2022/09/26 03:33:52;;;;;;;8.20;7.50;;;16.00;46.50;;;;;;10511646;28;20234;-68
2022/09/26 03:38:56;;;;;;;7.23;6.63;;;16.00;46.50;;;;;;10505040;28;20227;-68
2022/09/26 03:44:00;;;;;;;7.07;6.57;;;16.00;46.80;;;;;;10507477;28;20254;-68
2022/09/26 03:49:03;;;;;;;7.43;6.80;;;16.00;46.70;;;;;;10500114;28;20228;-69
2022/09/26 03:54:07;;;;;;;7.20;6.53;;;16.00;46.60;;;;;;10506352;28;20234;-69
2022/09/26 03:59:10;;;;;;;8.43;7.50;;;16.00;46.70;;;;;;10506290;28;20232;-69
2022/09/26 04:04:14;;;;;;;7.10;6.60;;;16.00;46.60;;;;;;10505709;28;20216;-68
2022/09/26 04:09:18;;;;;;;7.23;6.63;;;16.00;46.60;;;;;;10504652;28;20698;-68
2022/09/26 04:14:22;;;;;;;7.60;7.00;;;16.00;46.80;;;;;;10506063;28;20281;-68
2022/09/26 04:19:27;;;;;;;8.20;7.50;;;16.00;46.80;;;;;;10500484;28;20243;-69
2022/09/26 04:24:31;;;;;;;7.20;6.60;;;16.00;46.90;;;;;;10501806;28;20219;-69
2022/09/26 04:29:34;;;;;;;7.60;6.90;;;16.00;47.00;;;;;;10504679;28;20228;-69
2022/09/26 04:34:39;;;;;;;8.20;7.40;;;16.00;46.70;;;;;;10507544;28;20231;-69
2022/09/26 04:39:44;;;;;;;8.73;8.00;;;16.00;46.60;;;;;;10505557;28;20274;-70
2022/09/26 04:44:47;;;;;;;7.10;6.50;;;16.00;46.90;;;;;;10495424;28;20623;-70
2022/09/26 04:49:50;;;;;;;8.10;7.40;;;15.90;46.40;;;;;;10496377;28;20338;-70
2022/09/26 04:54:55;;;;;;;7.77;7.07;;;15.90;46.30;;;;;;10507567;28;21103;-70
2022/09/26 04:59:58;;;;;;;7.47;6.77;;;15.80;46.60;;;;;;10502255;28;20228;-70
2022/09/26 05:05:01;;;;;;;7.43;6.73;;;15.70;46.20;;;;;;10502748;28;20227;-70
2022/09/26 05:10:09;;;;;;;7.13;6.53;;;15.60;46.30;;;;;;10504164;28;20232;-70
2022/09/26 05:15:12;;;;;;;8.00;6.87;;;15.50;46.70;;;;;;10500746;28;20322;-70
2022/09/26 05:20:19;;;;;;;7.93;7.13;;;15.50;46.60;;;;;;10505288;28;20240;-71
2022/09/26 05:30:44;;;;;;;7.30;6.63;;;15.40;47.10;;;;;;10498662;28;20269;-71
2022/09/26 05:35:52;;;;;;;7.80;7.17;;;15.40;46.90;;;;;;10509357;28;20274;-76
2022/09/26 05:40:56;;;;;;;8.20;7.50;;;15.40;47.20;;;;;;10510396;28;20223;-76
2022/09/26 05:46:02;;;;;;;8.63;7.83;;;15.40;47.40;;;;;;10510920;28;20223;-76
2022/09/26 05:51:09;;;;;;;7.23;6.43;;;15.40;47.20;;;;;;10512825;28;20257;-73
2022/09/26 05:56:16;;;;;;;7.70;7.00;;;15.40;47.20;;;;;;10511277;28;20253;-73
2022/09/26 06:01:21;;;;;;;7.70;7.00;;;15.40;47.40;;;;;;10511323;28;20307;-73
2022/09/26 06:06:24;;;;;;;8.03;7.20;;;15.50;47.10;;;;;;10513489;28;20231;-73
2022/09/26 06:11:29;;;;;;;7.73;7.03;;;15.50;47.10;;;;;;10506905;28;20228;-73
2022/09/26 06:16:33;;;;;;;7.13;6.43;;;15.50;47.30;;;;;;10514254;28;20579;-73
2022/09/26 06:21:38;;;;;;;7.10;6.50;;;15.50;46.90;;;;;;10511916;28;20242;-73
2022/09/26 06:26:43;;;;;;;7.27;6.57;;;15.50;46.90;;;;;;10513009;28;20232;-70
2022/09/26 06:31:46;;;;;;;7.10;6.40;;;15.40;47.50;;;;;;10510297;28;20611;-70
2022/09/26 06:36:49;;;;;;;6.63;6.03;;;15.40;46.70;;;;;;10509990;28;20273;-75
2022/09/26 06:41:54;;;;;;;8.00;6.40;;;15.40;46.80;;;;;;10509346;28;20236;-70
2022/09/26 06:46:59;;;;;;;7.07;6.47;;;15.40;47.20;;;;;;10516489;28;20223;-70
2022/09/26 06:52:03;;;;;;;6.70;6.03;;;15.30;47.50;;;;;;10508121;28;20227;-71
2022/09/26 06:57:08;;;;;;;11.17;10.10;;;15.30;47.80;;;;;;10510020;28;20224;-70
2022/09/26 07:02:17;;;;;;;6.33;5.73;;;15.40;47.80;;;;;;10512142;28;20239;-70
2022/09/26 07:07:20;;;;;;;6.17;5.47;;;15.40;47.40;;;;;;10514718;28;20220;-70
2022/09/26 07:12:24;;;;;;;5.60;4.97;;;15.50;47.40;;;;;;10510560;28;20237;-70
2022/09/26 07:17:27;;;;;;;5.00;4.53;;;15.50;47.20;;;;;;10508158;28;20224;-70
2022/09/26 07:22:31;;;;;;;7.70;5.10;;;15.50;47.30;;;;;;10507086;28;20692;-70
2022/09/26 07:27:36;;;;;;;6.13;4.70;;;15.50;47.50;;;;;;10508219;28;20227;-70
2022/09/26 07:32:43;;;;;;;4.73;4.30;;;15.60;47.30;;;;;;10510288;28;20228;-74
2022/09/26 07:37:50;;;;;;;4.77;4.37;;;15.60;47.00;;;;;;10509677;28;20285;-74
2022/09/26 07:42:59;;;;;;;4.40;4.00;;;15.60;46.90;;;;;;10511963;28;20217;-74
2022/09/26 07:53:41;;;;;;;6.87;3.70;;;15.80;47.70;;;;;;10505046;28;20790;-74
2022/09/26 07:58:47;;;;;;;4.33;3.40;;;15.90;47.40;;;;;;10509536;28;20227;-73
2022/09/26 08:03:56;;;;;;;5.50;3.73;;;16.00;47.30;;;;;;10511979;28;20265;-74
2022/09/26 08:08:59;;;;;;;4.37;3.77;;;16.20;47.20;;;;;;10505413;28;20232;-74
2022/09/26 08:14:03;;;;;;;4.37;3.80;;;16.30;46.00;;;;;;10511907;28;20676;-73
2022/09/26 08:19:07;;;;;;;3.73;3.20;;;16.30;45.50;;;;;;10504815;28;20231;-74
2022/09/26 08:24:10;;;;;;;4.97;3.20;;;16.30;45.50;;;;;;10508381;28;20219;-74
2022/09/26 08:29:15;;;;;;;3.93;3.37;;;16.30;45.50;;;;;;10509643;28;20227;-74
2022/09/26 08:34:19;;;;;;;5.30;3.47;;;16.30;45.50;;;;;;10507276;28;20301;-74
2022/09/26 08:39:27;;;;;;;3.73;3.37;;;16.40;45.60;;;;;;10502149;28;20243;-74
2022/09/26 08:44:54;;;;;;;4.70;3.23;;;16.50;45.70;;;;;;10506733;28;20244;-74
2022/09/26 08:50:08;;;;;;;3.13;2.70;;;16.50;45.60;;;;;;10503457;28;20739;-74
2022/09/26 08:55:15;;;;;;;4.67;2.50;;;16.70;45.10;;;;;;10508825;28;20727;-74
2022/09/26 09:00:23;;;;;;;3.23;2.17;;;16.90;45.50;;;;;;10505497;28;20246;-74
2022/09/26 09:05:30;;;;;;;3.67;2.30;;;17.10;45.10;;;;;;10502990;28;20267;-74
2022/09/26 09:10:44;;;;;;;3.43;2.27;;;17.20;44.30;;;;;;10503707;28;20730;-74
2022/09/26 09:16:03;;;;;;;1.90;1.80;;;17.40;42.50;;;;;;10507406;28;20769;-74
2022/09/26 09:21:17;;;;;;;3.10;2.43;;;17.50;42.70;;;;;;10499635;28;20220;-74
2022/09/26 09:26:28;;;;;;;3.93;2.40;;;17.70;42.50;;;;;;10500352;28;20228;-74
2022/09/26 09:31:55;;;;;;;3.63;2.40;;;17.80;42.40;;;;;;10496413;28;20347;-74
2022/09/26 09:37:04;;;;;;;4.00;2.27;;;17.90;42.00;;;;;;10492398;28;20284;-74
2022/09/26 09:42:13;;;;;;;3.57;1.97;;;17.90;42.80;;;;;;10493599;28;20647;-74
2022/09/26 09:47:18;;;;;;;4.00;2.00;;;18.00;41.70;;;;;;10497698;28;20220;-74
2022/09/26 09:52:42;;;;;;;2.30;1.80;;;18.00;42.00;;;;;;10495821;28;20246;-74
2022/09/26 09:57:58;;;;;;;3.17;2.17;;;18.00;40.90;;;;;;10496895;28;20223;-75
2022/09/26 10:03:15;;;;;;;2.67;1.83;;;18.10;42.20;;;;;;10503375;28;20609;-74
2022/09/26 10:08:21;;;;;;;2.00;1.80;;;18.20;41.20;;;;;;10493674;28;20291;-75
2022/09/26 10:13:31;;;;;;;2.17;1.77;;;18.30;41.30;;;;;;10496926;28;20257;-75
2022/09/26 10:18:53;;;;;;;2.00;1.67;;;18.40;41.30;;;;;;10499566;28;20263;-76
2022/09/26 10:24:03;;;;;;;2.57;1.70;;;18.50;40.10;;;;;;10507278;28;20234;-75
2022/09/26 10:29:20;;;;;;;3.87;1.60;;;18.60;40.80;;;;;;10501946;28;20263;-75
2022/09/26 10:34:27;;;;;;;2.97;1.80;;;18.70;40.80;;;;;;10503341;28;20632;-75
2022/09/26 10:44:56;;;;;;;1.90;1.60;;;18.80;40.30;;;;;;10505332;28;20227;-74
2022/09/26 10:50:06;;;;;;;2.03;1.80;;;18.90;38.80;;;;;;10499577;28;20315;-74
2022/09/26 10:55:15;;;;;;;2.33;2.10;;;19.00;39.70;;;;;;10496558;28;20224;-74
2022/09/26 11:00:20;;;;;;;3.30;2.13;;;19.10;38.80;;;;;;10501094;28;21467;-74
2022/09/26 11:10:47;;;;;;;3.63;2.17;;;19.10;39.40;;;;;;10502435;28;20739;-74
2022/09/26 11:16:00;;;;;;;2.60;2.40;;;19.00;39.90;;;;;;10505770;28;20223;-74
2022/09/26 11:21:14;;;;;;;2.47;2.10;;;19.00;38.60;;;;;;10507070;28;20239;-74
2022/09/26 11:26:43;;;;;;;4.37;2.40;;;19.00;38.30;;;;;;10510939;28;20226;-74
2022/09/26 11:31:47;;;;;;;2.40;2.20;;;19.00;39.30;;;;;;10503917;28;20951;-73
2022/09/26 11:37:07;;;;;;;2.73;1.90;;;19.00;39.40;;;;;;10509753;28;20243;-73
2022/09/26 11:42:25;;;;;;;3.17;2.10;;;19.00;38.10;;;;;;10507150;28;20227;-74
2022/09/26 11:48:12;;;;;;;2.37;1.70;;;19.00;38.30;;;;;;10505673;28;20756;-73
2022/09/26 11:53:54;;;;;;;2.00;1.80;;;19.00;38.10;;;;;;10506208;28;20223;-73
2022/09/26 11:59:05;;;;;;;2.07;1.90;;;19.00;38.60;;;;;;10499527;28;20235;-73
2022/09/26 12:04:27;;;;;;;2.30;2.10;;;19.10;38.90;;;;;;10505616;28;20231;-73
2022/09/26 12:09:54;;;;;;;2.30;1.80;;;19.20;37.90;;;;;;10501544;28;20865;-73
2022/09/26 12:15:13;;;;;;;2.53;1.77;;;19.40;38.20;;;;;;10503388;28;20224;-73
2022/09/26 12:20:32;;;;;;;2.37;2.07;;;19.40;37.30;;;;;;10500445;28;20227;-73
2022/09/26 12:25:48;;;;;;;2.40;2.00;;;19.40;37.70;;;;;;10496247;28;20220;-73
2022/09/26 12:31:03;;;;;;;2.40;2.00;;;19.30;37.80;;;;;;10499821;28;20699;-73
2022/09/26 12:36:20;;;;;;;2.67;1.77;;;19.10;37.70;;;;;;10499109;28;20261;-73
2022/09/26 12:41:53;;;;;;;1.60;1.50;;;19.00;37.80;;;;;;10499920;28;20238;-73
2022/09/26 12:47:13;;;;;;;2.27;2.17;;;18.80;37.10;;;;;;10502490;28;20223;-73
2022/09/26 12:52:26;;;;;;;3.17;2.77;;;18.90;38.10;;;;;;10504648;28;20234;-73
2022/09/26 12:57:39;;;;;;;2.03;1.80;;;18.90;39.30;;;;;;10504721;28;21209;-73
2022/09/26 13:03:15;;;;;;;1.60;1.50;;;18.80;38.60;;;;;;10503343;28;20228;-73
2022/09/26 13:08:24;;;;;;;1.60;1.50;;;18.90;38.80;;;;;;10503223;28;20223;-73
2022/09/26 13:13:53;;;;;;;1.50;1.40;;;19.10;39.00;;;;;;10507281;28;20272;-73
2022/09/26 13:19:04;;;;;;;1.77;1.40;;;19.10;38.10;;;;;;10501858;28;20224;-74
2022/09/26 13:24:13;;;;;;;1.40;1.30;;;19.20;37.80;;;;;;10507613;28;20224;-73
2022/09/26 13:29:22;;;;;;;1.60;1.50;;;19.20;38.40;;;;;;10500140;28;20618;-73
2022/09/26 13:34:31;;;;;;;1.87;1.77;;;19.30;38.10;;;;;;10498959;28;20250;-73
2022/09/26 13:39:42;;;;;;;1.57;1.47;;;19.30;38.20;;;;;;10504942;28;20231;-73
2022/09/26 13:44:59;;;;;;;2.50;1.60;;;19.30;38.10;;;;;;10503281;28;20235;-73
2022/09/26 13:50:15;;;;;;;1.20;1.20;;;19.30;37.40;;;;;;10506098;28;20230;-73
2022/09/26 13:55:20;;;;;;;1.90;1.50;;;19.30;37.60;;;;;;10506161;28;20219;-73
2022/09/26 14:00:53;;;;;;;1.83;1.73;;;19.20;38.20;;;;;;10509490;28;20237;-73
2022/09/26 14:06:31;;;;;;;1.60;1.50;;;19.20;37.70;;;;;;10512746;28;20225;-71
2022/09/26 14:11:48;;;;;;;1.60;1.50;;;19.20;37.50;;;;;;10511133;28;20223;-73
2022/09/26 14:16:53;;;;;;;1.30;1.20;;;19.20;37.20;;;;;;10507932;28;20639;-73
2022/09/26 14:22:02;;;;;;;1.60;1.50;;;19.30;37.60;;;;;;10507948;28;20761;-73
2022/09/26 14:27:41;;;;;;;1.70;1.60;;;19.40;36.80;;;;;;10507678;28;20240;-73
2022/09/26 14:32:46;;;;;;;1.40;1.30;;;19.50;36.80;;;;;;10505547;28;20219;-74
2022/09/26 14:37:51;;;;;;;1.70;1.60;;;19.50;36.90;;;;;;10505469;28;20680;-73
2022/09/26 14:43:33;;;;;;;1.60;1.50;;;19.60;36.90;;;;;;10512232;28;20277;-73
2022/09/26 14:48:39;;;;;;;1.63;1.50;;;19.60;36.20;;;;;;10511802;28;20272;-73
2022/09/26 14:53:54;;;;;;;1.77;1.50;;;19.60;36.40;;;;;;10497357;28;20231;-72
2022/09/26 14:59:27;;;;;;;1.60;1.50;;;19.60;36.20;;;;;;10502675;28;20231;-72
2022/09/26 15:04:33;;;;;;;1.40;1.30;;;19.70;36.20;;;;;;10505412;28;20231;-72
2022/09/26 15:09:40;;;;;;;1.50;1.40;;;19.70;36.30;;;;;;10503142;28;20218;-72
2022/09/26 15:14:50;;;;;;;1.80;1.70;;;19.70;36.20;;;;;;10492795;28;20553;-72
2022/09/26 15:19:59;;;;;;;1.57;1.47;;;19.70;35.20;;;;;;10507666;28;20215;-72
2022/09/26 15:25:09;;;;;;;1.50;1.40;;;19.80;35.00;;;;;;10509286;28;20231;-72
2022/09/26 15:30:17;;;;;;;1.50;1.40;;;19.80;35.00;;;;;;10506961;28;20240;-72
2022/09/26 15:35:22;;;;;;;1.40;1.30;;;19.80;35.00;;;;;;10509952;28;20212;-72
2022/09/26 15:40:27;;;;;;;1.70;1.60;;;19.80;35.70;;;;;;10505785;28;20276;-72
2022/09/26 15:45:33;;;;;;;1.60;1.50;;;19.70;35.40;;;;;;10508870;28;20621;-75
2022/09/26 15:50:42;;;;;;;2.20;1.60;;;19.70;36.20;;;;;;10507544;28;20253;-76
2022/09/26 15:55:50;;;;;;;1.43;1.33;;;19.70;35.40;;;;;;10504898;28;20231;-75
2022/09/26 16:00:54;;;;;;;1.07;1.07;;;19.60;34.30;;;;;;10513720;28;20635;-76
2022/09/26 16:05:59;;;;;;;1.60;1.50;;;19.60;35.80;;;;;;10506446;28;20224;-76
2022/09/26 16:11:06;;;;;;;2.10;1.83;;;19.50;35.20;;;;;;10505395;28;20318;-74
2022/09/26 16:16:17;;;;;;;2.20;2.00;;;19.50;34.60;;;;;;10513565;28;20231;-77
2022/09/26 16:21:25;;;;;;;1.60;1.50;;;19.40;34.80;;;;;;10506250;28;20317;-75
2022/09/26 16:26:31;;;;;;;1.67;1.50;;;19.40;34.30;;;;;;10509923;28;20312;-75
2022/09/26 16:31:43;;;;;;;3.20;1.83;;;19.30;35.00;;;;;;10507404;28;20220;-75
2022/09/26 16:36:48;;;;;;;2.00;1.80;;;19.20;34.90;;;;;;10512664;28;20243;-75
2022/09/26 16:41:59;;;;;;;3.40;3.10;;;19.10;35.70;;;;;;10507658;28;20219;-78
2022/09/26 16:47:28;;;;;;;4.90;4.40;;;19.10;35.70;;;;;;10508972;28;20693;-75
2022/09/26 16:52:34;;;;;;;6.50;5.90;;;19.00;35.60;;;;;;10509248;28;20225;-75
2022/09/26 16:57:39;;;;;;;3.20;2.90;;;19.00;35.10;;;;;;10511714;28;20235;-75
2022/09/26 17:02:43;;;;;;;4.93;4.10;;;18.80;35.50;;;;;;10506151;28;20656;-75
2022/09/26 17:07:49;;;;;;;10.30;9.40;;;18.70;35.40;;;;;;10506100;28;20219;-74
2022/09/26 17:12:53;;;;;;;7.20;6.60;;;18.70;35.40;;;;;;10506659;28;20224;-74
2022/09/26 17:17:58;;;;;;;5.77;5.27;;;18.60;35.70;;;;;;10508201;28;20223;-73
2022/09/26 17:23:03;;;;;;;5.40;5.00;;;18.60;36.00;;;;;;10504008;28;20227;-73
2022/09/26 17:28:31;;;;;;;5.10;4.33;;;18.60;35.30;;;;;;10513313;28;20235;-73
2022/09/26 17:33:39;;;;;;;5.17;4.77;;;18.60;35.50;;;;;;10510917;28;20293;-73
2022/09/26 17:38:44;;;;;;;5.53;5.10;;;18.50;35.60;;;;;;10514742;28;20282;-73
2022/09/26 17:43:47;;;;;;;4.97;4.47;;;18.50;35.20;;;;;;10510674;28;20220;-73
2022/09/26 17:48:50;;;;;;;3.40;3.20;;;18.30;35.00;;;;;;10512616;28;20265;-73
2022/09/26 17:53:56;;;;;;;6.63;5.57;;;18.10;35.20;;;;;;10514621;28;20215;-73
2022/09/26 17:58:59;;;;;;;4.07;2.50;;;18.00;34.90;;;;;;10508890;28;20255;-73
2022/09/26 18:04:11;;;;;;;6.73;5.60;;;17.80;35.40;;;;;;10505240;28;20343;-72
2022/09/26 18:09:19;;;;;;;8.90;7.73;;;17.60;35.40;;;;;;10505775;28;20228;-73
2022/09/26 18:14:23;;;;;;;7.83;6.97;;;17.40;35.50;;;;;;10510330;28;20247;-73
2022/09/26 18:19:27;;;;;;;6.73;6.10;;;17.30;36.40;;;;;;10510706;28;20247;-73
2022/09/26 18:24:32;;;;;;;5.63;5.13;;;17.30;36.50;;;;;;10504536;28;20323;-73
2022/09/26 18:29:40;;;;;;;7.73;6.00;;;17.30;36.60;;;;;;10507797;28;20707;-73
2022/09/26 18:34:43;;;;;;;6.07;5.33;;;17.30;36.30;;;;;;10506207;28;20243;-74
2022/09/26 18:39:48;;;;;;;5.27;4.77;;;17.30;36.50;;;;;;10501191;28;20224;-74
2022/09/26 18:45:02;;;;;;;4.47;4.07;;;17.20;36.30;;;;;;10509486;28;20240;-73
2022/09/26 18:50:07;;;;;;;10.23;8.40;;;17.10;36.30;;;;;;10511049;28;20316;-73
2022/09/26 19:00:40;;;;;;;6.37;5.30;;;16.80;36.40;;;;;;10507543;28;20232;-73
2022/09/26 19:05:44;;;;;;;5.60;5.10;;;16.70;36.50;;;;;;10511253;28;20236;-73
2022/09/26 19:10:48;;;;;;;5.23;4.73;;;16.50;36.70;;;;;;10508321;28;20258;-73
2022/09/26 19:15:52;;;;;;;4.90;4.40;;;16.40;37.00;;;;;;10503747;28;20280;-73
2022/09/26 19:20:55;;;;;;;4.70;3.87;;;16.30;37.00;;;;;;10515672;28;20228;-73
2022/09/26 19:26:00;;;;;;;3.90;3.60;;;16.30;37.30;;;;;;10508216;28;20226;-73
2022/09/26 19:31:04;;;;;;;3.83;3.37;;;16.20;37.60;;;;;;10505980;28;20228;-73
2022/09/26 19:36:09;;;;;;;4.13;3.73;;;16.10;37.60;;;;;;10501594;28;20900;-69
2022/09/26 19:41:14;;;;;;;4.90;4.40;;;16.10;37.60;;;;;;10504579;28;20623;-69
2022/09/26 19:46:24;;;;;;;5.23;4.70;;;16.10;38.50;;;;;;10500892;28;20250;-69
2022/09/26 19:51:27;;;;;;;5.13;4.63;;;16.00;37.90;;;;;;10502754;28;20223;-69
2022/09/26 19:56:33;;;;;;;5.33;4.20;;;15.90;37.80;;;;;;10503011;28;20220;-69
2022/09/26 20:01:37;;;;;;;4.37;3.97;;;15.90;38.00;;;;;;10505898;28;20763;-69
2022/09/26 20:06:41;;;;;;;4.70;4.10;;;15.80;38.00;;;;;;10498208;28;20227;-69
2022/09/26 20:11:46;;;;;;;4.53;3.83;;;15.80;38.20;;;;;;10496036;28;20382;-69
2022/09/26 20:16:50;;;;;;;4.37;3.93;;;15.80;38.40;;;;;;10501091;28;20269;-69
2022/09/26 20:21:53;;;;;;;4.57;4.17;;;15.80;38.40;;;;;;10505657;28;20220;-69
2022/09/26 20:27:00;;;;;;;4.70;4.30;;;15.80;38.40;;;;;;10507776;28;20226;-69
2022/09/26 20:32:06;;;;;;;6.53;4.53;;;15.80;38.40;;;;;;10503102;28;20235;-70
2022/09/26 20:37:14;;;;;;;6.00;4.60;;;15.70;38.20;;;;;;10504875;28;20223;-69
2022/09/26 20:42:19;;;;;;;4.03;3.73;;;15.70;38.40;;;;;;10504975;28;20273;-69
2022/09/26 20:47:22;;;;;;;4.03;3.63;;;15.60;38.50;;;;;;10503350;28;20235;-69
2022/09/26 20:52:28;;;;;;;3.70;3.40;;;15.60;38.50;;;;;;10504341;28;20237;-69
2022/09/26 20:57:33;;;;;;;3.70;3.40;;;15.50;38.60;;;;;;10504141;28;20231;-69
2022/09/26 21:02:38;;;;;;;3.73;3.07;;;15.60;38.80;;;;;;10502903;28;20228;-69
2022/09/26 21:07:42;;;;;;;3.77;3.33;;;15.60;38.80;;;;;;10505267;28;20227;-69
2022/09/26 21:12:47;;;;;;;3.37;3.07;;;15.60;38.80;;;;;;10503150;28;20349;-69
2022/09/26 21:17:51;;;;;;;3.20;2.93;;;15.50;38.70;;;;;;10497610;28;20219;-68
2022/09/26 21:22:55;;;;;;;3.63;3.23;;;15.60;38.80;;;;;;10504725;28;20212;-69
2022/09/26 21:28:02;;;;;;;4.03;3.13;;;15.60;38.80;;;;;;10506083;28;20614;-69
2022/09/26 21:33:05;;;;;;;3.23;2.93;;;15.60;38.80;;;;;;10500722;28;20680;-69
2022/09/26 21:38:08;;;;;;;3.40;3.10;;;15.60;38.80;;;;;;10496145;28;20228;-69
2022/09/26 21:43:15;;;;;;;3.07;2.87;;;15.50;38.70;;;;;;10503624;28;20236;-69
2022/09/26 21:48:18;;;;;;;3.17;2.97;;;15.60;38.80;;;;;;10494926;28;20232;-69
2022/09/26 21:53:25;;;;;;;3.63;3.33;;;15.60;38.80;;;;;;10502673;28;21848;-69
2022/09/26 21:58:36;;;;;;;3.37;3.07;;;15.50;38.90;;;;;;10502229;28;20228;-69
2022/09/26 22:03:39;;;;;;;2.90;2.60;;;15.60;39.10;;;;;;10501924;28;20286;-69
2022/09/26 22:08:42;;;;;;;3.80;3.33;;;15.60;38.90;;;;;;10498994;28;20236;-69
2022/09/26 22:13:47;;;;;;;3.97;2.80;;;15.60;38.90;;;;;;10509152;28;20302;-69
2022/09/26 22:18:50;;;;;;;3.10;2.90;;;15.60;38.80;;;;;;10509134;28;20231;-69
2022/09/26 22:23:53;;;;;;;5.23;2.60;;;15.60;38.80;;;;;;10514070;28;20261;-69
2022/09/26 22:28:58;;;;;;;2.90;2.70;;;15.60;38.90;;;;;;10512874;28;20631;-69
2022/09/26 22:34:01;;;;;;;2.77;2.57;;;15.60;38.90;;;;;;10507509;28;20219;-69
2022/09/26 22:39:04;;;;;;;2.40;2.20;;;15.60;38.90;;;;;;10503113;28;20691;-69
2022/09/26 22:44:09;;;;;;;2.60;2.40;;;15.60;38.80;;;;;;10509141;28;20273;-69
2022/09/26 22:49:12;;;;;;;2.13;2.00;;;15.60;38.80;;;;;;10509992;28;20775;-69
2022/09/26 22:54:16;;;;;;;2.80;2.60;;;15.60;38.80;;;;;;10507899;28;20734;-69
2022/09/26 22:59:20;;;;;;;2.53;2.30;;;15.60;38.80;;;;;;10509328;28;20637;-69
2022/09/26 23:04:45;;;;;;;2.40;2.17;;;15.60;39.60;;;;;;10510435;28;20234;-69
2022/09/26 23:09:47;;;;;;;2.40;2.20;;;15.70;38.90;;;;;;10511448;28;20230;-69
2022/09/26 23:14:52;;;;;;;2.53;2.10;;;15.70;38.80;;;;;;10505572;28;20223;-69
2022/09/26 23:19:55;;;;;;;2.00;1.90;;;15.70;38.60;;;;;;10506312;28;20219;-70
2022/09/26 23:24:58;;;;;;;3.20;2.00;;;15.70;38.50;;;;;;10508421;28;20232;-69
2022/09/26 23:30:03;;;;;;;2.23;1.77;;;15.60;38.40;;;;;;10505432;28;20226;-69
2022/09/26 23:35:07;;;;;;;1.70;1.60;;;15.60;38.40;;;;;;10505052;28;20215;-69
2022/09/26 23:40:10;;;;;;;2.00;1.80;;;15.60;38.50;;;;;;10508502;28;20244;-69
2022/09/26 23:45:15;;;;;;;2.00;1.90;;;15.60;38.60;;;;;;10508295;28;20307;-69
2022/09/26 23:50:19;;;;;;;6.20;1.80;;;15.60;38.80;;;;;;10510776;28;20239;-69
2022/09/26 23:55:22;;;;;;;1.80;1.70;;;15.60;38.70;;;;;;10505123;28;20231;-69
